Terminal Aerodrome Forecast
Issued by NWS

Home | Current Version | Previous Version | Graphics & Text | Print | Product List | Glossary On
Versions: 1 2 3 4 5 6 7 8 9 10 11 12 13 14 15 16 17 18 19 20 21 22 23
588
FTUS43 KBIS 152128 AAA
TAFMOT
TAF AMD
KMOT 152128Z 1521/1618 34007KT P6SM OVC019
     FM152300 05008KT P6SM OVC015
     FM161200 12011KT P6SM BKN012
     FM161600 13015G23KT P6SM BKN035=

USA.gov is the U.S. government's official web portal to all federal, state and local government web resources and services.